createdAt,value
2023-02-19T00:00:31.921Z,67
2023-02-19T00:01:31.888Z,67
2023-02-19T00:02:31.890Z,67
2023-02-19T00:03:32.354Z,67
2023-02-19T00:04:32.122Z,67
2023-02-19T00:05:31.934Z,67
2023-02-19T00:06:31.946Z,67
2023-02-19T00:07:31.917Z,67
2023-02-19T00:08:31.962Z,67
2023-02-19T00:09:31.892Z,67
2023-02-19T00:10:31.921Z,67
2023-02-19T00:11:31.891Z,67
2023-02-19T00:12:31.920Z,67
2023-02-19T00:13:31.887Z,67
2023-02-19T00:14:31.914Z,67
2023-02-19T00:15:31.958Z,67
2023-02-19T00:16:31.888Z,67
2023-02-19T00:17:31.901Z,67
2023-02-19T00:18:31.939Z,67
2023-02-19T00:19:31.887Z,67
2023-02-19T00:20:31.927Z,67
2023-02-19T00:21:31.889Z,67
2023-02-19T00:22:31.905Z,67
2023-02-19T00:23:31.983Z,67
2023-02-19T00:24:31.906Z,67
2023-02-19T00:25:31.885Z,67
2023-02-19T00:26:31.915Z,67
2023-02-19T00:27:31.961Z,67
2023-02-19T00:28:31.888Z,67
2023-02-19T00:29:31.870Z,67
2023-02-19T00:30:32.008Z,68
2023-02-19T00:31:33.153Z,67
2023-02-19T00:32:31.910Z,67
2023-02-19T00:33:31.905Z,68
2023-02-19T00:34:31.886Z,67
2023-02-19T00:35:31.905Z,67
2023-02-19T00:36:31.911Z,67
2023-02-19T00:37:31.883Z,67
2023-02-19T00:38:31.942Z,67
2023-02-19T00:39:31.878Z,67
2023-02-19T00:40:31.883Z,67
2023-02-19T00:41:31.894Z,67
2023-02-19T00:42:31.917Z,67
2023-02-19T00:43:31.915Z,67
2023-02-19T00:44:31.885Z,67
2023-02-19T00:45:31.875Z,67
2023-02-19T00:46:31.939Z,67
2023-02-19T00:47:31.899Z,67
2023-02-19T00:48:31.885Z,67
2023-02-19T00:49:31.922Z,67
2023-02-19T00:50:31.936Z,67
2023-02-19T00:51:31.940Z,67
2023-02-19T00:52:31.918Z,67
2023-02-19T00:53:31.880Z,67
2023-02-19T00:54:31.908Z,67
2023-02-19T00:55:32.031Z,67
2023-02-19T00:56:31.905Z,67
2023-02-19T00:57:31.989Z,67
2023-02-19T00:58:31.989Z,67
2023-02-19T00:59:31.909Z,67
2023-02-19T01:00:31.946Z,67
2023-02-19T01:01:31.986Z,68
2023-02-19T01:02:31.975Z,68
2023-02-19T01:03:31.911Z,68
2023-02-19T01:04:31.907Z,67
2023-02-19T01:05:31.931Z,67
2023-02-19T01:06:31.946Z,67
2023-02-19T01:07:31.871Z,67
2023-02-19T01:08:31.904Z,68
2023-02-19T01:09:31.877Z,67
2023-02-19T01:10:31.969Z,67
2023-02-19T01:11:31.940Z,67
2023-02-19T01:12:31.909Z,68
2023-02-19T01:13:31.884Z,68
2023-02-19T01:14:31.928Z,68
2023-02-19T01:15:31.872Z,68
2023-02-19T01:16:31.895Z,68
2023-02-19T01:17:31.873Z,68
2023-02-19T01:18:31.965Z,68
2023-02-19T01:19:31.899Z,68
2023-02-19T01:20:31.894Z,68
2023-02-19T01:21:31.884Z,68
2023-02-19T01:22:31.958Z,68
2023-02-19T01:23:31.874Z,67
2023-02-19T01:24:31.900Z,67
2023-02-19T01:25:31.905Z,67
2023-02-19T01:26:31.898Z,68
2023-02-19T01:27:31.892Z,67
2023-02-19T01:28:31.892Z,67
2023-02-19T01:29:31.929Z,67
2023-02-19T01:30:31.999Z,67
2023-02-19T01:31:31.967Z,67
2023-02-19T01:32:31.934Z,67
2023-02-19T01:33:31.922Z,67
2023-02-19T01:34:31.916Z,67
2023-02-19T01:35:31.905Z,67
2023-02-19T01:36:31.848Z,68
2023-02-19T01:37:31.899Z,67
2023-02-19T01:38:31.937Z,67
2023-02-19T01:39:31.853Z,68
2023-02-19T01:40:31.992Z,68
2023-02-19T01:41:32.026Z,67
2023-02-19T01:42:32.076Z,67
2023-02-19T01:43:32.046Z,68
2023-02-19T01:44:31.996Z,67
2023-02-19T01:45:32.023Z,67
2023-02-19T01:46:32.073Z,67
2023-02-19T01:47:32.028Z,68
2023-02-19T01:48:32.110Z,68
2023-02-19T01:49:32.052Z,68
2023-02-19T01:50:32.036Z,67
2023-02-19T01:51:31.993Z,67
2023-02-19T01:52:32.049Z,67
2023-02-19T01:53:31.985Z,67
2023-02-19T01:54:32.061Z,67
2023-02-19T01:55:32.033Z,67
2023-02-19T01:56:31.885Z,67
2023-02-19T01:57:31.899Z,67
2023-02-19T01:58:31.884Z,67
2023-02-19T01:59:31.871Z,67
2023-02-19T02:00:31.922Z,67
2023-02-19T02:01:31.917Z,67
2023-02-19T02:02:31.915Z,67
2023-02-19T02:03:31.892Z,67
2023-02-19T02:04:31.889Z,67
2023-02-19T02:05:31.956Z,67
2023-02-19T02:06:31.967Z,67
2023-02-19T02:07:31.905Z,66
2023-02-19T02:08:31.971Z,66
2023-02-19T02:09:31.917Z,67
2023-02-19T02:10:31.880Z,67
2023-02-19T02:11:31.921Z,67
2023-02-19T02:12:31.927Z,67
2023-02-19T02:13:31.935Z,67
2023-02-19T02:14:31.870Z,67
2023-02-19T02:15:31.962Z,67
2023-02-19T02:16:31.926Z,67
2023-02-19T02:17:31.924Z,67
2023-02-19T02:18:32.002Z,67
2023-02-19T02:19:31.891Z,67
2023-02-19T02:20:31.876Z,67
2023-02-19T02:21:31.930Z,67
2023-02-19T02:22:31.865Z,67
2023-02-19T02:23:31.948Z,66
2023-02-19T02:24:31.883Z,67
2023-02-19T02:25:31.901Z,67
2023-02-19T02:26:31.880Z,66
2023-02-19T02:27:31.862Z,66
2023-02-19T02:28:32.004Z,66
2023-02-19T02:29:31.926Z,66
2023-02-19T02:30:32.033Z,66
2023-02-19T02:31:32.015Z,66
2023-02-19T02:32:31.876Z,66
2023-02-19T02:33:31.909Z,66
2023-02-19T02:34:31.954Z,66
2023-02-19T02:35:31.896Z,66
2023-02-19T02:36:31.888Z,66
2023-02-19T02:37:31.893Z,66
2023-02-19T02:38:31.901Z,66
2023-02-19T02:39:31.906Z,66
2023-02-19T02:40:31.876Z,66
2023-02-19T02:41:31.910Z,66
2023-02-19T02:42:31.881Z,66
2023-02-19T02:43:31.874Z,66
2023-02-19T02:44:31.916Z,66
2023-02-19T02:45:31.939Z,66
2023-02-19T02:46:31.878Z,66
2023-02-19T02:47:32.012Z,66
2023-02-19T02:48:31.904Z,66
2023-02-19T02:49:31.898Z,66
2023-02-19T02:50:31.863Z,66
2023-02-19T02:51:31.903Z,66
2023-02-19T02:52:31.879Z,66
2023-02-19T02:53:32.230Z,67
2023-02-19T02:54:31.958Z,66
2023-02-19T02:55:31.908Z,66
2023-02-19T02:56:31.908Z,66
2023-02-19T02:57:31.905Z,66
2023-02-19T02:58:31.869Z,66
2023-02-19T02:59:31.881Z,66
2023-02-19T03:00:31.895Z,66
2023-02-19T03:01:31.886Z,66
2023-02-19T03:02:31.976Z,66
2023-02-19T03:03:31.907Z,66
2023-02-19T03:04:31.836Z,66
2023-02-19T03:05:31.874Z,66
2023-02-19T03:06:31.897Z,66
2023-02-19T03:07:31.895Z,66
2023-02-19T03:08:31.858Z,66
2023-02-19T03:09:31.844Z,66
2023-02-19T03:10:32.031Z,66
2023-02-19T03:11:31.991Z,66
2023-02-19T03:12:31.995Z,66
2023-02-19T03:13:31.880Z,66
2023-02-19T03:14:31.961Z,66
2023-02-19T03:15:31.917Z,66
2023-02-19T03:16:31.945Z,66
2023-02-19T03:17:31.876Z,65
2023-02-19T03:18:32.019Z,65
2023-02-19T03:19:31.896Z,65
2023-02-19T03:20:31.976Z,66
2023-02-19T03:21:31.911Z,66
2023-02-19T03:22:31.952Z,66
2023-02-19T03:23:31.955Z,66
2023-02-19T03:24:31.854Z,66
2023-02-19T03:25:32.006Z,66
2023-02-19T03:26:31.873Z,66
2023-02-19T03:27:31.880Z,66
2023-02-19T03:28:31.984Z,66
2023-02-19T03:29:31.861Z,66
2023-02-19T03:30:32.085Z,65
2023-02-19T03:31:32.198Z,65
2023-02-19T03:32:31.960Z,66
2023-02-19T03:33:31.991Z,66
2023-02-19T03:34:32.344Z,65
2023-02-19T03:35:31.908Z,65
2023-02-19T03:36:32.024Z,65
2023-02-19T03:37:31.961Z,65
2023-02-19T03:38:32.040Z,65
2023-02-19T03:39:32.030Z,65
2023-02-19T03:40:31.994Z,65
2023-02-19T03:41:31.893Z,65
2023-02-19T03:42:31.938Z,65
2023-02-19T03:43:32.001Z,65
2023-02-19T03:44:31.955Z,65
2023-02-19T03:45:32.098Z,65
2023-02-19T03:46:31.907Z,65
2023-02-19T03:47:32.026Z,65
2023-02-19T03:48:31.947Z,65
2023-02-19T03:49:31.952Z,65
2023-02-19T03:50:31.941Z,65
2023-02-19T03:51:31.916Z,65
2023-02-19T03:52:31.862Z,66
2023-02-19T03:53:31.866Z,65
2023-02-19T03:54:31.886Z,65
2023-02-19T03:55:31.913Z,65
2023-02-19T03:56:31.845Z,65
2023-02-19T03:57:31.927Z,65
2023-02-19T03:58:31.915Z,65
2023-02-19T03:59:31.888Z,65
2023-02-19T04:00:31.867Z,65
2023-02-19T04:01:31.853Z,65
2023-02-19T04:02:32.009Z,65
2023-02-19T04:03:31.863Z,65
2023-02-19T04:04:31.879Z,65
2023-02-19T04:05:31.885Z,65
2023-02-19T04:06:31.908Z,65
2023-02-19T04:07:31.896Z,65
2023-02-19T04:08:31.881Z,65
2023-02-19T04:09:31.866Z,65
2023-02-19T04:10:31.884Z,65
2023-02-19T04:11:31.898Z,65
2023-02-19T04:12:31.893Z,65
2023-02-19T04:13:31.935Z,66
2023-02-19T04:14:31.891Z,66
2023-02-19T04:15:31.917Z,65
2023-02-19T04:16:31.935Z,65
2023-02-19T04:17:31.856Z,65
2023-02-19T04:18:31.882Z,65
2023-02-19T04:19:31.906Z,65
2023-02-19T04:20:31.960Z,65
2023-02-19T04:21:31.864Z,65
2023-02-19T04:22:31.911Z,66
2023-02-19T04:23:31.873Z,66
2023-02-19T04:24:31.859Z,66
2023-02-19T04:25:31.862Z,66
2023-02-19T04:26:31.867Z,66
2023-02-19T04:27:31.901Z,66
2023-02-19T04:28:31.848Z,66
2023-02-19T04:29:31.903Z,66
2023-02-19T04:30:32.031Z,66
2023-02-19T04:31:32.153Z,66
2023-02-19T04:32:31.910Z,66
2023-02-19T04:33:31.889Z,66
2023-02-19T04:34:31.877Z,66
2023-02-19T04:35:31.893Z,66
2023-02-19T04:36:31.887Z,66
2023-02-19T04:37:31.898Z,66
2023-02-19T04:38:31.896Z,66
2023-02-19T04:39:31.886Z,66
2023-02-19T04:40:31.882Z,66
2023-02-19T04:41:31.873Z,66
2023-02-19T04:42:31.884Z,66
2023-02-19T04:43:31.883Z,66
2023-02-19T04:44:31.902Z,66
2023-02-19T04:45:31.858Z,66
2023-02-19T04:46:31.874Z,66
2023-02-19T04:47:31.884Z,66
2023-02-19T04:48:31.863Z,66
2023-02-19T04:49:31.881Z,66
2023-02-19T04:50:31.933Z,66
2023-02-19T04:51:31.877Z,66
2023-02-19T04:52:31.850Z,66
2023-02-19T04:53:31.848Z,66
2023-02-19T04:54:31.902Z,66
2023-02-19T04:55:31.887Z,66
2023-02-19T04:56:31.852Z,66
2023-02-19T04:57:31.877Z,66
2023-02-19T04:58:31.879Z,66
2023-02-19T04:59:31.898Z,66
2023-02-19T05:00:31.910Z,66
2023-02-19T05:01:31.898Z,66
2023-02-19T05:02:31.850Z,66
2023-02-19T05:03:32.142Z,66
2023-02-19T05:04:31.923Z,66
2023-02-19T05:05:31.875Z,66
2023-02-19T05:06:31.869Z,66
2023-02-19T05:07:31.833Z,66
2023-02-19T05:08:31.907Z,66
2023-02-19T05:09:31.941Z,66
2023-02-19T05:10:31.876Z,66
2023-02-19T05:11:31.853Z,66
2023-02-19T05:12:31.879Z,66
2023-02-19T05:13:31.941Z,66
2023-02-19T05:14:31.890Z,66
2023-02-19T05:15:31.913Z,66
2023-02-19T05:16:32.008Z,66
2023-02-19T05:17:31.876Z,66
2023-02-19T05:18:31.899Z,66
2023-02-19T05:19:31.877Z,66
2023-02-19T05:20:31.871Z,66
2023-02-19T05:21:31.865Z,66
2023-02-19T05:22:31.852Z,66
2023-02-19T05:23:31.859Z,66
2023-02-19T05:24:31.893Z,66
2023-02-19T05:25:31.863Z,67
2023-02-19T05:26:31.870Z,66
2023-02-19T05:27:31.862Z,67
2023-02-19T05:28:31.884Z,67
2023-02-19T05:29:31.848Z,67
2023-02-19T05:30:32.959Z,67
2023-02-19T05:31:31.972Z,67
2023-02-19T05:32:31.891Z,67
2023-02-19T05:33:31.864Z,67
2023-02-19T05:34:31.895Z,67
2023-02-19T05:35:31.936Z,67
2023-02-19T05:36:31.973Z,67
2023-02-19T05:37:31.898Z,67
2023-02-19T05:38:31.840Z,67
2023-02-19T05:39:31.844Z,67
2023-02-19T05:40:31.885Z,67
2023-02-19T05:41:31.898Z,67
2023-02-19T05:42:31.865Z,67
2023-02-19T05:43:31.841Z,67
2023-02-19T05:44:31.859Z,67
2023-02-19T05:45:31.917Z,67
2023-02-19T05:46:31.965Z,67
2023-02-19T05:47:31.899Z,67
2023-02-19T05:48:31.890Z,67
2023-02-19T05:49:31.870Z,67
2023-02-19T05:50:31.847Z,67
2023-02-19T05:51:31.860Z,67
2023-02-19T05:52:31.862Z,67
2023-02-19T05:53:31.850Z,67
2023-02-19T05:54:31.835Z,67
2023-02-19T05:55:31.852Z,67
2023-02-19T05:56:32.013Z,67
2023-02-19T05:57:31.869Z,67
2023-02-19T05:58:31.986Z,67
2023-02-19T05:59:31.893Z,67
2023-02-19T06:00:31.869Z,67
2023-02-19T06:01:31.877Z,67
2023-02-19T06:02:31.902Z,67
2023-02-19T06:03:31.889Z,67
2023-02-19T06:04:31.880Z,67
2023-02-19T06:05:31.860Z,67
2023-02-19T06:06:31.944Z,67
2023-02-19T06:07:31.878Z,67
2023-02-19T06:08:31.860Z,67
2023-02-19T06:09:31.824Z,67
2023-02-19T06:10:31.880Z,67
2023-02-19T06:11:31.849Z,67
2023-02-19T06:12:31.876Z,67
2023-02-19T06:13:31.850Z,68
2023-02-19T06:14:31.896Z,68
2023-02-19T06:15:31.859Z,68
2023-02-19T06:16:31.867Z,68
2023-02-19T06:17:31.860Z,68
2023-02-19T06:18:31.883Z,68
2023-02-19T06:19:31.821Z,68
2023-02-19T06:20:31.882Z,68
2023-02-19T06:21:31.836Z,67
2023-02-19T06:22:31.895Z,67
2023-02-19T06:23:31.843Z,68
2023-02-19T06:24:31.890Z,68
2023-02-19T06:25:31.878Z,68
2023-02-19T06:26:31.912Z,68
2023-02-19T06:27:31.854Z,68
2023-02-19T06:28:31.893Z,68
2023-02-19T06:29:31.859Z,68
2023-02-19T06:30:31.901Z,68
2023-02-19T06:31:32.074Z,68
2023-02-19T06:32:31.948Z,68
2023-02-19T06:33:31.861Z,67
2023-02-19T06:34:31.863Z,67
2023-02-19T06:35:31.850Z,67
2023-02-19T06:36:31.888Z,67
2023-02-19T06:37:31.892Z,67
2023-02-19T06:38:31.870Z,67
2023-02-19T06:39:31.855Z,67
2023-02-19T06:40:31.910Z,67
2023-02-19T06:41:31.932Z,68
2023-02-19T06:42:31.878Z,68
2023-02-19T06:43:31.901Z,68
2023-02-19T06:44:31.852Z,68
2023-02-19T06:45:31.932Z,68
2023-02-19T06:46:31.913Z,67
2023-02-19T06:47:31.907Z,67
2023-02-19T06:48:31.838Z,68
2023-02-19T06:49:31.852Z,67
2023-02-19T06:50:31.877Z,67
2023-02-19T06:51:31.841Z,67
2023-02-19T06:52:31.871Z,67
2023-02-19T06:53:31.875Z,68
2023-02-19T06:54:31.868Z,68
2023-02-19T06:55:31.847Z,68
2023-02-19T06:56:31.953Z,68
2023-02-19T06:57:31.894Z,68
2023-02-19T06:58:31.934Z,68
2023-02-19T06:59:31.929Z,68
2023-02-19T07:00:31.935Z,68
2023-02-19T07:01:31.890Z,68
2023-02-19T07:02:31.876Z,67
2023-02-19T07:03:31.843Z,68
2023-02-19T07:04:31.882Z,67
2023-02-19T07:05:31.860Z,67
2023-02-19T07:06:31.838Z,67
2023-02-19T07:07:31.868Z,67
2023-02-19T07:08:31.931Z,67
2023-02-19T07:09:31.840Z,67
2023-02-19T07:10:31.866Z,67
2023-02-19T07:11:31.832Z,67
2023-02-19T07:12:31.917Z,67
2023-02-19T07:13:31.834Z,67
2023-02-19T07:14:31.830Z,67
2023-02-19T07:15:31.852Z,67
2023-02-19T07:16:31.985Z,67
2023-02-19T07:17:31.840Z,67
2023-02-19T07:18:31.830Z,67
2023-02-19T07:19:31.900Z,66
2023-02-19T07:20:31.874Z,66
2023-02-19T07:21:31.884Z,66
2023-02-19T07:22:31.860Z,66
2023-02-19T07:23:31.851Z,65
2023-02-19T07:24:31.871Z,65
2023-02-19T07:25:31.843Z,65
2023-02-19T07:26:31.916Z,64
2023-02-19T07:27:31.867Z,64
2023-02-19T07:28:32.024Z,64
2023-02-19T07:29:31.862Z,64
2023-02-19T07:30:31.900Z,63
2023-02-19T07:31:31.955Z,63
2023-02-19T07:32:31.872Z,63
2023-02-19T07:33:31.859Z,63
2023-02-19T07:34:31.849Z,63
2023-02-19T07:35:31.851Z,62
2023-02-19T07:36:31.875Z,62
2023-02-19T07:37:31.875Z,62
2023-02-19T07:38:31.919Z,63
2023-02-19T07:39:31.872Z,62
2023-02-19T07:40:31.861Z,62
2023-02-19T07:41:31.858Z,62
2023-02-19T07:42:31.899Z,62
2023-02-19T07:43:31.894Z,62
2023-02-19T07:44:31.902Z,62
2023-02-19T07:45:31.870Z,62
2023-02-19T07:46:31.843Z,62
2023-02-19T07:47:31.874Z,62
2023-02-19T07:48:31.882Z,61
2023-02-19T07:49:31.849Z,61
2023-02-19T07:50:31.825Z,61
2023-02-19T07:51:31.856Z,61
2023-02-19T07:52:31.866Z,61
2023-02-19T07:53:31.883Z,61
2023-02-19T07:54:31.880Z,62
2023-02-19T07:55:32.044Z,61
2023-02-19T07:56:31.882Z,61
2023-02-19T07:57:31.885Z,61
2023-02-19T07:58:31.978Z,61
2023-02-19T07:59:31.859Z,61
2023-02-19T08:00:31.871Z,60
2023-02-19T08:01:31.940Z,61
2023-02-19T08:02:31.858Z,60
2023-02-19T08:03:31.895Z,60
2023-02-19T08:04:31.955Z,60
2023-02-19T08:05:31.864Z,60
2023-02-19T08:06:31.898Z,60
2023-02-19T08:07:31.851Z,60
2023-02-19T08:08:31.844Z,60
2023-02-19T08:09:31.821Z,60
2023-02-19T08:10:31.854Z,60
2023-02-19T08:11:31.888Z,60
2023-02-19T08:12:31.843Z,60
2023-02-19T08:13:31.891Z,60
2023-02-19T08:14:31.909Z,59
2023-02-19T08:15:31.837Z,59
2023-02-19T08:16:42.671Z,59
2023-02-19T08:17:31.857Z,59
2023-02-19T08:18:31.910Z,59
2023-02-19T08:19:31.847Z,59
2023-02-19T08:20:31.833Z,59
2023-02-19T08:21:34.210Z,59
2023-02-19T08:22:31.864Z,59
2023-02-19T08:23:31.851Z,59
2023-02-19T08:24:31.863Z,59
2023-02-19T08:25:31.855Z,58
2023-02-19T08:26:31.859Z,58
2023-02-19T08:27:31.842Z,58
2023-02-19T08:28:31.854Z,58
2023-02-19T08:29:31.854Z,58
2023-02-19T08:30:32.011Z,59
2023-02-19T08:31:32.015Z,59
2023-02-19T08:32:31.853Z,58
2023-02-19T08:33:31.837Z,58
2023-02-19T08:34:31.857Z,58
2023-02-19T08:35:32.074Z,58
2023-02-19T08:36:31.864Z,58
2023-02-19T08:37:31.859Z,58
2023-02-19T08:38:31.880Z,58
2023-02-19T08:39:31.856Z,59
2023-02-19T08:40:31.861Z,59
2023-02-19T08:41:31.898Z,60
2023-02-19T08:42:31.939Z,60
2023-02-19T08:43:31.904Z,59
2023-02-19T08:44:31.846Z,59
2023-02-19T08:45:31.847Z,60
2023-02-19T08:46:34.426Z,60
2023-02-19T08:47:31.948Z,59
2023-02-19T08:48:31.868Z,59
2023-02-19T08:49:32.077Z,60
2023-02-19T08:50:31.852Z,60
2023-02-19T08:51:31.894Z,59
2023-02-19T08:52:31.959Z,59
2023-02-19T08:53:31.957Z,59
2023-02-19T08:54:31.855Z,58
2023-02-19T08:55:31.884Z,58
2023-02-19T08:56:31.849Z,58
2023-02-19T08:57:32.033Z,57
2023-02-19T08:58:31.894Z,58
2023-02-19T08:59:31.861Z,58
2023-02-19T09:00:31.868Z,57
2023-02-19T09:01:31.838Z,57
2023-02-19T09:02:31.874Z,57
2023-02-19T09:03:31.906Z,57
2023-02-19T09:04:31.856Z,57
2023-02-19T09:05:31.819Z,57
2023-02-19T09:06:31.849Z,57
2023-02-19T09:07:31.842Z,57
2023-02-19T09:08:31.840Z,57
2023-02-19T09:09:31.829Z,57
2023-02-19T09:10:31.859Z,56
2023-02-19T09:11:31.838Z,57
2023-02-19T09:12:31.892Z,56
2023-02-19T09:13:31.859Z,56
2023-02-19T09:14:31.958Z,56
2023-02-19T09:15:31.971Z,57
2023-02-19T09:16:31.857Z,57
2023-02-19T09:17:31.814Z,57
2023-02-19T09:18:31.941Z,56
2023-02-19T09:19:31.842Z,56
2023-02-19T09:20:31.875Z,57
2023-02-19T09:21:31.824Z,56
2023-02-19T09:22:31.867Z,56
2023-02-19T09:23:31.827Z,56
2023-02-19T09:24:31.868Z,56
2023-02-19T09:25:31.999Z,56
2023-02-19T09:26:31.884Z,56
2023-02-19T09:27:31.900Z,56
2023-02-19T09:28:31.907Z,55
2023-02-19T09:29:31.863Z,56
2023-02-19T09:30:31.972Z,55
2023-02-19T09:31:31.911Z,55
2023-02-19T09:32:31.867Z,56
2023-02-19T09:33:31.849Z,56
2023-02-19T09:34:31.873Z,56
2023-02-19T09:35:31.854Z,56
2023-02-19T09:36:31.827Z,56
2023-02-19T09:37:34.025Z,55
2023-02-19T09:38:31.857Z,56
2023-02-19T09:39:32.012Z,55
2023-02-19T09:40:31.853Z,55
2023-02-19T09:41:31.835Z,55
2023-02-19T09:42:31.858Z,55
2023-02-19T09:43:31.992Z,55
2023-02-19T09:44:31.873Z,55
2023-02-19T09:45:31.840Z,55
2023-02-19T09:46:32.081Z,55
2023-02-19T09:47:31.861Z,55
2023-02-19T09:48:31.854Z,55
2023-02-19T09:49:31.812Z,55
2023-02-19T09:50:31.848Z,55
2023-02-19T09:51:31.834Z,55
2023-02-19T09:52:31.863Z,55
2023-02-19T09:53:31.849Z,54
2023-02-19T09:54:31.839Z,54
2023-02-19T09:55:32.097Z,54
2023-02-19T09:56:31.816Z,54
2023-02-19T09:57:31.826Z,55
2023-02-19T09:58:31.878Z,55
2023-02-19T09:59:31.864Z,55
2023-02-19T10:00:31.833Z,54
2023-02-19T10:01:31.873Z,55
2023-02-19T10:02:31.861Z,55
2023-02-19T10:03:31.879Z,54
2023-02-19T10:04:31.790Z,54
2023-02-19T10:05:31.855Z,54
2023-02-19T10:06:31.848Z,54
2023-02-19T10:07:31.877Z,54
2023-02-19T10:08:31.836Z,54
2023-02-19T10:09:31.828Z,54
2023-02-19T10:10:31.842Z,55
2023-02-19T10:11:31.883Z,55
2023-02-19T10:12:31.829Z,54
2023-02-19T10:13:31.887Z,54
2023-02-19T10:14:31.843Z,54
2023-02-19T10:15:31.838Z,54
2023-02-19T10:16:31.810Z,53
2023-02-19T10:17:31.919Z,53
2023-02-19T10:18:31.872Z,53
2023-02-19T10:19:31.855Z,53
2023-02-19T10:20:32.072Z,54
2023-02-19T10:21:31.840Z,54
2023-02-19T10:22:31.845Z,54
2023-02-19T10:23:31.843Z,54
2023-02-19T10:24:31.835Z,54
2023-02-19T10:25:31.842Z,54
2023-02-19T10:26:31.866Z,54
2023-02-19T10:27:31.885Z,54
2023-02-19T10:28:31.904Z,54
2023-02-19T10:29:31.804Z,54
2023-02-19T10:30:31.964Z,54
2023-02-19T10:31:31.916Z,54
2023-02-19T10:32:31.836Z,54
2023-02-19T10:33:31.844Z,55
2023-02-19T10:34:31.848Z,54
2023-02-19T10:35:31.866Z,55
2023-02-19T10:36:32.575Z,55
2023-02-19T10:37:31.807Z,54
2023-02-19T10:38:31.856Z,54
2023-02-19T10:39:31.884Z,55
2023-02-19T10:40:31.822Z,54
2023-02-19T10:41:31.855Z,54
2023-02-19T10:42:31.834Z,54
2023-02-19T10:43:31.867Z,53
2023-02-19T10:44:31.849Z,53
2023-02-19T10:45:31.831Z,54
2023-02-19T10:46:31.873Z,54
2023-02-19T10:47:31.868Z,54
2023-02-19T10:48:31.829Z,53
2023-02-19T10:49:31.822Z,53
2023-02-19T10:50:31.871Z,54
2023-02-19T10:51:31.863Z,54
2023-02-19T10:52:31.824Z,54
2023-02-19T10:53:31.818Z,54
2023-02-19T10:54:31.839Z,54
2023-02-19T10:55:31.858Z,53
2023-02-19T10:56:31.824Z,54
2023-02-19T10:57:31.813Z,53
2023-02-19T10:58:31.920Z,54
2023-02-19T10:59:31.933Z,54
2023-02-19T11:00:31.901Z,54
2023-02-19T11:01:31.867Z,53
2023-02-19T11:02:31.830Z,53
2023-02-19T11:03:31.916Z,54
2023-02-19T11:04:31.908Z,54
2023-02-19T11:05:31.899Z,53
2023-02-19T11:06:33.950Z,53
2023-02-19T11:07:31.906Z,53
2023-02-19T11:08:31.952Z,53
2023-02-19T11:09:31.839Z,53
2023-02-19T11:10:31.847Z,53
2023-02-19T11:11:31.933Z,53
2023-02-19T11:12:31.883Z,52
2023-02-19T11:13:31.840Z,53
2023-02-19T11:14:31.821Z,52
2023-02-19T11:15:31.855Z,53
2023-02-19T11:16:31.852Z,53
2023-02-19T11:17:31.837Z,53
2023-02-19T11:18:31.890Z,52
2023-02-19T11:19:31.881Z,53
2023-02-19T11:20:31.808Z,52
2023-02-19T11:21:31.838Z,52
2023-02-19T11:22:31.825Z,53
2023-02-19T11:23:32.004Z,53
2023-02-19T11:24:31.819Z,53
2023-02-19T11:25:31.822Z,53
2023-02-19T11:26:31.822Z,53
2023-02-19T11:27:31.920Z,53
2023-02-19T11:28:31.831Z,53
2023-02-19T11:29:31.823Z,53
2023-02-19T11:30:34.469Z,53
2023-02-19T11:31:32.066Z,53
2023-02-19T11:32:31.867Z,53
2023-02-19T11:33:31.832Z,52
2023-02-19T11:34:31.866Z,52
2023-02-19T11:35:31.834Z,52
2023-02-19T11:36:31.872Z,52
2023-02-19T11:37:31.833Z,52
2023-02-19T11:38:31.939Z,52
2023-02-19T11:39:31.833Z,52
2023-02-19T11:40:31.838Z,52
2023-02-19T11:41:31.873Z,52
2023-02-19T11:42:31.818Z,52
2023-02-19T11:43:31.862Z,52
2023-02-19T11:44:31.818Z,52
2023-02-19T11:45:31.830Z,52
2023-02-19T11:46:31.907Z,52
2023-02-19T11:47:31.888Z,52
2023-02-19T11:48:31.812Z,52
2023-02-19T11:49:31.851Z,52
2023-02-19T11:50:31.854Z,51
2023-02-19T11:51:31.875Z,51
2023-02-19T11:52:31.817Z,52
2023-02-19T11:53:31.837Z,51
2023-02-19T11:54:31.834Z,52
2023-02-19T11:55:31.896Z,51
2023-02-19T11:56:31.881Z,51
2023-02-19T11:57:31.875Z,51
2023-02-19T11:58:31.903Z,51
2023-02-19T11:59:31.830Z,52
2023-02-19T12:00:31.815Z,51
2023-02-19T12:01:31.979Z,51
2023-02-19T12:02:31.778Z,51
2023-02-19T12:03:31.843Z,51
2023-02-19T12:04:31.832Z,51
2023-02-19T12:05:31.798Z,51
2023-02-19T12:06:31.802Z,51
2023-02-19T12:07:32.021Z,51
2023-02-19T12:08:31.834Z,51
2023-02-19T12:09:31.818Z,51
2023-02-19T12:10:31.863Z,51
2023-02-19T12:11:31.819Z,51
2023-02-19T12:12:31.824Z,50
2023-02-19T12:13:31.863Z,50
2023-02-19T12:14:31.868Z,50
2023-02-19T12:15:31.839Z,51
2023-02-19T12:16:31.857Z,50
2023-02-19T12:17:31.814Z,50
2023-02-19T12:18:33.355Z,50
2023-02-19T12:19:31.838Z,50
2023-02-19T12:20:32.169Z,50
2023-02-19T12:21:31.822Z,50
2023-02-19T12:22:31.820Z,50
2023-02-19T12:23:31.842Z,50
2023-02-19T12:24:31.817Z,51
2023-02-19T12:25:34.110Z,50
2023-02-19T12:26:31.808Z,50
2023-02-19T12:27:31.835Z,50
2023-02-19T12:28:31.804Z,50
2023-02-19T12:29:31.806Z,50
2023-02-19T12:30:31.947Z,50
2023-02-19T12:31:33.099Z,51
2023-02-19T12:32:31.822Z,50
2023-02-19T12:33:31.802Z,50
2023-02-19T12:34:31.847Z,50
2023-02-19T12:35:31.827Z,50
2023-02-19T12:36:31.823Z,50
2023-02-19T12:37:31.844Z,51
2023-02-19T12:38:31.814Z,50
2023-02-19T12:39:31.802Z,50
2023-02-19T12:40:31.893Z,50
2023-02-19T12:41:31.863Z,50
2023-02-19T12:42:31.824Z,50
2023-02-19T12:43:31.818Z,50
2023-02-19T12:44:31.812Z,50
2023-02-19T12:45:31.874Z,49
2023-02-19T12:46:31.836Z,49
2023-02-19T12:47:31.783Z,49
2023-02-19T12:48:31.787Z,49
2023-02-19T12:49:31.824Z,50
2023-02-19T12:50:31.817Z,50
2023-02-19T12:51:31.815Z,49
2023-02-19T12:52:31.901Z,48
2023-02-19T12:53:31.866Z,48
2023-02-19T12:54:31.816Z,48
2023-02-19T12:55:31.810Z,48
2023-02-19T12:56:31.830Z,48
2023-02-19T12:57:31.836Z,48
2023-02-19T12:58:32.022Z,47
2023-02-19T12:59:31.808Z,47
2023-02-19T13:00:31.895Z,48
2023-02-19T13:01:31.908Z,48
2023-02-19T13:02:31.957Z,48
2023-02-19T13:03:31.866Z,48
2023-02-19T13:04:31.839Z,48
2023-02-19T13:05:31.803Z,49
2023-02-19T13:06:31.882Z,49
2023-02-19T13:07:31.814Z,49
2023-02-19T13:08:33.922Z,48
2023-02-19T13:09:31.811Z,48
2023-02-19T13:10:31.853Z,48
2023-02-19T13:11:31.942Z,47
2023-02-19T13:12:31.823Z,47
2023-02-19T13:13:31.826Z,47
2023-02-19T13:14:31.835Z,47
2023-02-19T13:15:31.822Z,46
2023-02-19T13:16:31.872Z,47
2023-02-19T13:17:31.829Z,47
2023-02-19T13:18:31.815Z,47
2023-02-19T13:19:31.836Z,47
2023-02-19T13:20:31.813Z,47
2023-02-19T13:21:32.815Z,48
2023-02-19T13:22:31.811Z,47
2023-02-19T13:23:31.867Z,46
2023-02-19T13:24:31.809Z,46
2023-02-19T13:25:31.836Z,46
2023-02-19T13:26:31.812Z,46
2023-02-19T13:27:31.871Z,47
2023-02-19T13:28:31.812Z,48
2023-02-19T13:29:31.840Z,48
2023-02-19T13:30:31.879Z,48
2023-02-19T13:31:31.915Z,47
2023-02-19T13:32:31.823Z,47
2023-02-19T13:33:31.818Z,47
2023-02-19T13:34:31.854Z,47
2023-02-19T13:35:31.854Z,47
2023-02-19T13:36:31.824Z,47
2023-02-19T13:37:31.800Z,47
2023-02-19T13:38:31.907Z,47
2023-02-19T13:39:31.861Z,47
2023-02-19T13:40:31.871Z,47
2023-02-19T13:41:31.802Z,47
2023-02-19T13:42:31.829Z,47
2023-02-19T13:43:31.833Z,47
2023-02-19T13:44:31.813Z,47
2023-02-19T13:45:31.881Z,48
2023-02-19T13:46:31.823Z,48
2023-02-19T13:47:31.840Z,48
2023-02-19T13:48:31.840Z,48
2023-02-19T13:49:31.792Z,48
2023-02-19T13:50:31.810Z,48
2023-02-19T13:51:31.828Z,49
2023-02-19T13:52:31.801Z,48
2023-02-19T13:53:31.810Z,47
2023-02-19T13:54:31.795Z,47
2023-02-19T13:55:31.863Z,48
2023-02-19T13:56:31.820Z,48
2023-02-19T13:57:31.856Z,47
2023-02-19T13:58:31.817Z,47
2023-02-19T13:59:31.838Z,48
2023-02-19T14:00:31.866Z,48
2023-02-19T14:01:31.815Z,48
2023-02-19T14:02:31.874Z,48
2023-02-19T14:03:31.867Z,48
2023-02-19T14:04:31.766Z,49
2023-02-19T14:05:31.804Z,49
2023-02-19T14:06:31.847Z,49
2023-02-19T14:07:31.799Z,49
2023-02-19T14:08:31.912Z,49
2023-02-19T14:09:31.798Z,49
2023-02-19T14:10:31.845Z,49
2023-02-19T14:11:31.805Z,49
2023-02-19T14:12:31.847Z,49
2023-02-19T14:13:31.817Z,49
2023-02-19T14:14:31.816Z,49
2023-02-19T14:15:31.849Z,50